sensor_id;sensor_type;location;lat;lon;timestamp;P1;durP1;ratioP1;P2;durP2;ratioP2
10191;SDS011;17580;50.850;4.504;2023-11-18T00:02:24;9.53;;;7.23;;
10191;SDS011;17580;50.850;4.504;2023-11-18T00:04:51;10.50;;;7.23;;
10191;SDS011;17580;50.850;4.504;2023-11-18T00:07:20;11.37;;;7.93;;
10191;SDS011;17580;50.850;4.504;2023-11-18T00:09:47;15.30;;;9.20;;
10191;SDS011;17580;50.850;4.504;2023-11-18T00:12:14;13.10;;;8.00;;
10191;SDS011;17580;50.850;4.504;2023-11-18T00:14:42;11.90;;;8.10;;
10191;SDS011;17580;50.850;4.504;2023-11-18T00:17:08;17.17;;;8.20;;
10191;SDS011;17580;50.850;4.504;2023-11-18T00:19:35;13.07;;;9.00;;
10191;SDS011;17580;50.850;4.504;2023-11-18T00:22:02;10.40;;;7.23;;
10191;SDS011;17580;50.850;4.504;2023-11-18T00:24:32;12.40;;;7.23;;
10191;SDS011;17580;50.850;4.504;2023-11-18T00:27:00;8.53;;;7.57;;
10191;SDS011;17580;50.850;4.504;2023-11-18T00:29:30;9.30;;;7.47;;
10191;SDS011;17580;50.850;4.504;2023-11-18T00:31:58;12.10;;;8.20;;
10191;SDS011;17580;50.850;4.504;2023-11-18T00:34:25;10.30;;;7.43;;
10191;SDS011;17580;50.850;4.504;2023-11-18T00:36:53;10.10;;;7.53;;
10191;SDS011;17580;50.850;4.504;2023-11-18T00:39:22;7.53;;;6.50;;
10191;SDS011;17580;50.850;4.504;2023-11-18T00:41:51;10.23;;;7.27;;
10191;SDS011;17580;50.850;4.504;2023-11-18T00:44:18;11.57;;;7.47;;
10191;SDS011;17580;50.850;4.504;2023-11-18T00:46:45;9.87;;;7.43;;
10191;SDS011;17580;50.850;4.504;2023-11-18T00:49:12;9.30;;;8.23;;
10191;SDS011;17580;50.850;4.504;2023-11-18T00:51:39;10.80;;;6.60;;
10191;SDS011;17580;50.850;4.504;2023-11-18T00:54:07;10.47;;;8.20;;
10191;SDS011;17580;50.850;4.504;2023-11-18T00:56:34;12.90;;;6.60;;
10191;SDS011;17580;50.850;4.504;2023-11-18T00:59:03;10.60;;;7.67;;
10191;SDS011;17580;50.850;4.504;2023-11-18T01:01:31;9.07;;;5.93;;
10191;SDS011;17580;50.850;4.504;2023-11-18T01:03:58;10.33;;;7.17;;
10191;SDS011;17580;50.850;4.504;2023-11-18T01:06:25;7.93;;;6.57;;
10191;SDS011;17580;50.850;4.504;2023-11-18T01:08:53;11.67;;;7.00;;
10191;SDS011;17580;50.850;4.504;2023-11-18T01:11:20;8.77;;;6.77;;
10191;SDS011;17580;50.850;4.504;2023-11-18T01:13:48;7.43;;;6.67;;
10191;SDS011;17580;50.850;4.504;2023-11-18T01:16:16;8.70;;;6.00;;
10191;SDS011;17580;50.850;4.504;2023-11-18T01:18:44;6.77;;;6.07;;
10191;SDS011;17580;50.850;4.504;2023-11-18T01:21:12;8.07;;;6.33;;
10191;SDS011;17580;50.850;4.504;2023-11-18T01:23:42;11.27;;;6.90;;
10191;SDS011;17580;50.850;4.504;2023-11-18T01:26:10;11.13;;;6.67;;
10191;SDS011;17580;50.850;4.504;2023-11-18T01:28:38;10.93;;;5.93;;
10191;SDS011;17580;50.850;4.504;2023-11-18T01:31:07;9.90;;;6.03;;
10191;SDS011;17580;50.850;4.504;2023-11-18T01:33:37;7.03;;;5.57;;
10191;SDS011;17580;50.850;4.504;2023-11-18T01:36:05;11.07;;;6.10;;
10191;SDS011;17580;50.850;4.504;2023-11-18T01:38:33;6.87;;;5.57;;
10191;SDS011;17580;50.850;4.504;2023-11-18T01:41:00;9.20;;;5.50;;
10191;SDS011;17580;50.850;4.504;2023-11-18T01:43:28;9.03;;;6.53;;
10191;SDS011;17580;50.850;4.504;2023-11-18T01:45:57;7.87;;;6.13;;
10191;SDS011;17580;50.850;4.504;2023-11-18T01:48:27;8.57;;;5.87;;
10191;SDS011;17580;50.850;4.504;2023-11-18T01:50:56;7.23;;;6.00;;
10191;SDS011;17580;50.850;4.504;2023-11-18T01:53:24;6.13;;;5.40;;
10191;SDS011;17580;50.850;4.504;2023-11-18T01:55:52;11.63;;;5.53;;
10191;SDS011;17580;50.850;4.504;2023-11-18T01:58:19;11.77;;;5.27;;
10191;SDS011;17580;50.850;4.504;2023-11-18T02:00:48;6.73;;;5.67;;
10191;SDS011;17580;50.850;4.504;2023-11-18T02:03:17;11.73;;;5.03;;
10191;SDS011;17580;50.850;4.504;2023-11-18T02:05:45;6.13;;;4.53;;
10191;SDS011;17580;50.850;4.504;2023-11-18T02:08:14;7.77;;;4.57;;
10191;SDS011;17580;50.850;4.504;2023-11-18T02:10:45;6.57;;;4.80;;
10191;SDS011;17580;50.850;4.504;2023-11-18T02:13:16;8.13;;;5.07;;
10191;SDS011;17580;50.850;4.504;2023-11-18T02:15:49;6.47;;;4.83;;
10191;SDS011;17580;50.850;4.504;2023-11-18T02:18:17;6.07;;;4.17;;
10191;SDS011;17580;50.850;4.504;2023-11-18T02:20:44;7.33;;;4.30;;
10191;SDS011;17580;50.850;4.504;2023-11-18T02:23:13;4.37;;;3.57;;
10191;SDS011;17580;50.850;4.504;2023-11-18T02:25:43;8.40;;;4.20;;
10191;SDS011;17580;50.850;4.504;2023-11-18T02:28:11;5.83;;;3.23;;
10191;SDS011;17580;50.850;4.504;2023-11-18T02:30:38;7.10;;;3.60;;
10191;SDS011;17580;50.850;4.504;2023-11-18T02:33:07;6.30;;;3.10;;
10191;SDS011;17580;50.850;4.504;2023-11-18T02:35:41;11.10;;;3.70;;
10191;SDS011;17580;50.850;4.504;2023-11-18T02:38:13;4.20;;;3.20;;
10191;SDS011;17580;50.850;4.504;2023-11-18T02:40:41;14.03;;;4.43;;
10191;SDS011;17580;50.850;4.504;2023-11-18T02:43:11;5.93;;;3.70;;
10191;SDS011;17580;50.850;4.504;2023-11-18T02:45:39;4.27;;;3.03;;
10191;SDS011;17580;50.850;4.504;2023-11-18T02:48:06;5.80;;;3.47;;
10191;SDS011;17580;50.850;4.504;2023-11-18T02:50:34;7.90;;;3.30;;
10191;SDS011;17580;50.850;4.504;2023-11-18T02:53:01;5.37;;;3.50;;
10191;SDS011;17580;50.850;4.504;2023-11-18T02:55:28;5.63;;;3.53;;
10191;SDS011;17580;50.850;4.504;2023-11-18T02:57:56;4.70;;;3.50;;
10191;SDS011;17580;50.850;4.504;2023-11-18T03:00:24;5.50;;;3.30;;
10191;SDS011;17580;50.850;4.504;2023-11-18T03:02:53;7.23;;;3.13;;
10191;SDS011;17580;50.850;4.504;2023-11-18T03:05:21;7.20;;;3.90;;
10191;SDS011;17580;50.850;4.504;2023-11-18T03:07:47;7.50;;;3.60;;
10191;SDS011;17580;50.850;4.504;2023-11-18T03:10:17;5.77;;;3.90;;
10191;SDS011;17580;50.850;4.504;2023-11-18T03:12:47;6.13;;;3.70;;
10191;SDS011;17580;50.850;4.504;2023-11-18T03:15:14;10.43;;;4.43;;
10191;SDS011;17580;50.850;4.504;2023-11-18T03:17:44;7.43;;;3.40;;
10191;SDS011;17580;50.850;4.504;2023-11-18T03:20:13;4.73;;;3.80;;
10191;SDS011;17580;50.850;4.504;2023-11-18T03:22:42;6.80;;;3.93;;
10191;SDS011;17580;50.850;4.504;2023-11-18T03:25:10;9.10;;;4.20;;
10191;SDS011;17580;50.850;4.504;2023-11-18T03:27:37;5.50;;;3.80;;
10191;SDS011;17580;50.850;4.504;2023-11-18T03:30:05;7.40;;;4.80;;
10191;SDS011;17580;50.850;4.504;2023-11-18T03:32:32;5.67;;;3.53;;
10191;SDS011;17580;50.850;4.504;2023-11-18T03:35:01;5.33;;;3.50;;
10191;SDS011;17580;50.850;4.504;2023-11-18T03:37:29;5.73;;;3.93;;
10191;SDS011;17580;50.850;4.504;2023-11-18T03:39:57;7.63;;;3.97;;
10191;SDS011;17580;50.850;4.504;2023-11-18T03:42:26;5.17;;;3.27;;
10191;SDS011;17580;50.850;4.504;2023-11-18T03:44:54;4.63;;;3.27;;
10191;SDS011;17580;50.850;4.504;2023-11-18T03:47:21;6.47;;;3.30;;
10191;SDS011;17580;50.850;4.504;2023-11-18T03:49:49;11.13;;;3.17;;
10191;SDS011;17580;50.850;4.504;2023-11-18T03:52:18;6.97;;;3.47;;
10191;SDS011;17580;50.850;4.504;2023-11-18T03:54:45;10.83;;;4.00;;
10191;SDS011;17580;50.850;4.504;2023-11-18T03:57:12;6.67;;;3.73;;
10191;SDS011;17580;50.850;4.504;2023-11-18T03:59:39;10.90;;;3.47;;
10191;SDS011;17580;50.850;4.504;2023-11-18T04:02:07;9.93;;;4.57;;
10191;SDS011;17580;50.850;4.504;2023-11-18T04:04:36;7.33;;;4.17;;
10191;SDS011;17580;50.850;4.504;2023-11-18T04:07:03;8.37;;;4.03;;
10191;SDS011;17580;50.850;4.504;2023-11-18T04:09:33;6.43;;;3.70;;
10191;SDS011;17580;50.850;4.504;2023-11-18T04:12:00;4.70;;;3.30;;
10191;SDS011;17580;50.850;4.504;2023-11-18T04:14:28;7.73;;;4.23;;
10191;SDS011;17580;50.850;4.504;2023-11-18T04:16:55;5.63;;;3.63;;
10191;SDS011;17580;50.850;4.504;2023-11-18T04:19:22;7.07;;;3.30;;
10191;SDS011;17580;50.850;4.504;2023-11-18T04:21:50;6.53;;;3.50;;
10191;SDS011;17580;50.850;4.504;2023-11-18T04:24:17;7.27;;;3.10;;
10191;SDS011;17580;50.850;4.504;2023-11-18T04:26:46;5.90;;;3.10;;
10191;SDS011;17580;50.850;4.504;2023-11-18T04:29:14;5.97;;;3.07;;
10191;SDS011;17580;50.850;4.504;2023-11-18T04:31:41;7.53;;;3.40;;
10191;SDS011;17580;50.850;4.504;2023-11-18T04:34:08;3.23;;;2.90;;
10191;SDS011;17580;50.850;4.504;2023-11-18T04:36:35;6.13;;;2.50;;
10191;SDS011;17580;50.850;4.504;2023-11-18T04:39:03;7.03;;;3.57;;
10191;SDS011;17580;50.850;4.504;2023-11-18T04:41:30;5.50;;;3.10;;
10191;SDS011;17580;50.850;4.504;2023-11-18T04:43:59;10.63;;;3.67;;
10191;SDS011;17580;50.850;4.504;2023-11-18T04:46:26;8.97;;;3.60;;
10191;SDS011;17580;50.850;4.504;2023-11-18T04:48:53;8.13;;;4.20;;
10191;SDS011;17580;50.850;4.504;2023-11-18T04:51:21;8.30;;;3.43;;
10191;SDS011;17580;50.850;4.504;2023-11-18T04:53:48;7.27;;;3.77;;
10191;SDS011;17580;50.850;4.504;2023-11-18T04:56:15;6.30;;;3.40;;
10191;SDS011;17580;50.850;4.504;2023-11-18T04:58:43;8.10;;;3.50;;
10191;SDS011;17580;50.850;4.504;2023-11-18T05:01:13;5.50;;;3.33;;
10191;SDS011;17580;50.850;4.504;2023-11-18T05:03:40;6.87;;;3.40;;
10191;SDS011;17580;50.850;4.504;2023-11-18T05:06:07;5.07;;;3.20;;
10191;SDS011;17580;50.850;4.504;2023-11-18T05:08:35;9.73;;;3.20;;
10191;SDS011;17580;50.850;4.504;2023-11-18T05:11:02;13.30;;;4.20;;
10191;SDS011;17580;50.850;4.504;2023-11-18T05:13:30;7.30;;;3.90;;
10191;SDS011;17580;50.850;4.504;2023-11-18T05:15:58;11.77;;;3.93;;
10191;SDS011;17580;50.850;4.504;2023-11-18T05:18:27;5.93;;;3.73;;
10191;SDS011;17580;50.850;4.504;2023-11-18T05:20:58;9.27;;;3.37;;
10191;SDS011;17580;50.850;4.504;2023-11-18T05:23:25;9.57;;;4.03;;
10191;SDS011;17580;50.850;4.504;2023-11-18T05:25:54;9.53;;;3.77;;
10191;SDS011;17580;50.850;4.504;2023-11-18T05:28:23;9.73;;;4.33;;
10191;SDS011;17580;50.850;4.504;2023-11-18T05:30:50;10.37;;;3.77;;
10191;SDS011;17580;50.850;4.504;2023-11-18T05:33:18;6.27;;;3.50;;
10191;SDS011;17580;50.850;4.504;2023-11-18T05:35:47;6.47;;;3.37;;
10191;SDS011;17580;50.850;4.504;2023-11-18T05:38:15;9.90;;;3.57;;
10191;SDS011;17580;50.850;4.504;2023-11-18T05:40:44;6.13;;;2.40;;
10191;SDS011;17580;50.850;4.504;2023-11-18T05:43:20;10.13;;;2.87;;
10191;SDS011;17580;50.850;4.504;2023-11-18T05:45:49;8.67;;;3.10;;
10191;SDS011;17580;50.850;4.504;2023-11-18T05:48:39;5.80;;;2.83;;
10191;SDS011;17580;50.850;4.504;2023-11-18T05:51:08;9.10;;;3.20;;
10191;SDS011;17580;50.850;4.504;2023-11-18T05:53:39;8.80;;;3.10;;
10191;SDS011;17580;50.850;4.504;2023-11-18T05:56:07;6.00;;;3.07;;
10191;SDS011;17580;50.850;4.504;2023-11-18T05:58:35;5.47;;;2.47;;
10191;SDS011;17580;50.850;4.504;2023-11-18T06:01:02;8.37;;;2.73;;
10191;SDS011;17580;50.850;4.504;2023-11-18T06:03:30;9.93;;;3.13;;
10191;SDS011;17580;50.850;4.504;2023-11-18T06:05:57;8.10;;;2.53;;
10191;SDS011;17580;50.850;4.504;2023-11-18T06:08:26;5.27;;;2.10;;
10191;SDS011;17580;50.850;4.504;2023-11-18T06:10:53;8.03;;;2.37;;
10191;SDS011;17580;50.850;4.504;2023-11-18T06:13:22;8.13;;;2.70;;
10191;SDS011;17580;50.850;4.504;2023-11-18T06:15:49;7.43;;;2.70;;
10191;SDS011;17580;50.850;4.504;2023-11-18T06:18:18;8.03;;;2.87;;
10191;SDS011;17580;50.850;4.504;2023-11-18T06:20:45;5.90;;;2.00;;
10191;SDS011;17580;50.850;4.504;2023-11-18T06:23:13;9.57;;;2.80;;
10191;SDS011;17580;50.850;4.504;2023-11-18T06:25:45;6.67;;;2.30;;
10191;SDS011;17580;50.850;4.504;2023-11-18T06:28:13;11.10;;;2.57;;
10191;SDS011;17580;50.850;4.504;2023-11-18T06:30:41;3.57;;;2.17;;
10191;SDS011;17580;50.850;4.504;2023-11-18T06:33:09;5.83;;;2.10;;
10191;SDS011;17580;50.850;4.504;2023-11-18T06:35:37;7.83;;;2.40;;
10191;SDS011;17580;50.850;4.504;2023-11-18T06:38:05;7.87;;;2.13;;
10191;SDS011;17580;50.850;4.504;2023-11-18T06:40:32;2.60;;;2.00;;
10191;SDS011;17580;50.850;4.504;2023-11-18T06:43:01;3.23;;;2.10;;
10191;SDS011;17580;50.850;4.504;2023-11-18T06:45:35;8.87;;;2.47;;
10191;SDS011;17580;50.850;4.504;2023-11-18T06:48:03;10.97;;;2.60;;
10191;SDS011;17580;50.850;4.504;2023-11-18T06:50:31;7.73;;;2.63;;
10191;SDS011;17580;50.850;4.504;2023-11-18T06:53:00;7.63;;;2.40;;
10191;SDS011;17580;50.850;4.504;2023-11-18T06:55:27;5.53;;;2.30;;
10191;SDS011;17580;50.850;4.504;2023-11-18T06:57:54;10.33;;;2.47;;
10191;SDS011;17580;50.850;4.504;2023-11-18T07:00:23;6.97;;;2.70;;
10191;SDS011;17580;50.850;4.504;2023-11-18T07:02:53;4.70;;;2.60;;
10191;SDS011;17580;50.850;4.504;2023-11-18T07:05:20;7.17;;;2.60;;
10191;SDS011;17580;50.850;4.504;2023-11-18T07:07:49;6.03;;;2.83;;
10191;SDS011;17580;50.850;4.504;2023-11-18T07:10:16;7.03;;;3.17;;
10191;SDS011;17580;50.850;4.504;2023-11-18T07:12:46;6.83;;;3.27;;
10191;SDS011;17580;50.850;4.504;2023-11-18T07:15:13;10.10;;;3.10;;
10191;SDS011;17580;50.850;4.504;2023-11-18T07:17:42;8.03;;;3.10;;
10191;SDS011;17580;50.850;4.504;2023-11-18T07:20:10;6.37;;;2.47;;
10191;SDS011;17580;50.850;4.504;2023-11-18T07:22:38;7.87;;;3.33;;
10191;SDS011;17580;50.850;4.504;2023-11-18T07:25:05;5.67;;;2.87;;
10191;SDS011;17580;50.850;4.504;2023-11-18T07:27:34;6.80;;;3.20;;
10191;SDS011;17580;50.850;4.504;2023-11-18T07:30:02;8.20;;;3.17;;
10191;SDS011;17580;50.850;4.504;2023-11-18T07:32:31;7.77;;;3.27;;
10191;SDS011;17580;50.850;4.504;2023-11-18T07:35:00;10.23;;;3.50;;
10191;SDS011;17580;50.850;4.504;2023-11-18T07:37:27;6.77;;;3.07;;
10191;SDS011;17580;50.850;4.504;2023-11-18T07:39:57;11.87;;;3.33;;
10191;SDS011;17580;50.850;4.504;2023-11-18T07:42:25;7.00;;;2.80;;
10191;SDS011;17580;50.850;4.504;2023-11-18T07:44:53;9.60;;;2.77;;
10191;SDS011;17580;50.850;4.504;2023-11-18T07:47:22;5.93;;;3.13;;
10191;SDS011;17580;50.850;4.504;2023-11-18T07:49:49;5.90;;;2.20;;
10191;SDS011;17580;50.850;4.504;2023-11-18T07:52:18;6.00;;;3.00;;
10191;SDS011;17580;50.850;4.504;2023-11-18T07:54:45;9.20;;;3.47;;
10191;SDS011;17580;50.850;4.504;2023-11-18T07:57:13;7.53;;;2.63;;
10191;SDS011;17580;50.850;4.504;2023-11-18T07:59:40;10.77;;;3.40;;
10191;SDS011;17580;50.850;4.504;2023-11-18T08:02:07;8.07;;;3.13;;
10191;SDS011;17580;50.850;4.504;2023-11-18T08:04:36;5.70;;;2.90;;
10191;SDS011;17580;50.850;4.504;2023-11-18T08:07:03;4.67;;;2.73;;
10191;SDS011;17580;50.850;4.504;2023-11-18T08:09:32;6.60;;;2.80;;
10191;SDS011;17580;50.850;4.504;2023-11-18T08:11:59;9.03;;;3.40;;
10191;SDS011;17580;50.850;4.504;2023-11-18T08:14:26;8.30;;;3.40;;
10191;SDS011;17580;50.850;4.504;2023-11-18T08:16:54;9.63;;;2.87;;
10191;SDS011;17580;50.850;4.504;2023-11-18T08:19:21;6.40;;;3.03;;
10191;SDS011;17580;50.850;4.504;2023-11-18T08:21:49;6.90;;;3.00;;
10191;SDS011;17580;50.850;4.504;2023-11-18T08:24:17;6.53;;;3.23;;
10191;SDS011;17580;50.850;4.504;2023-11-18T08:26:47;5.60;;;3.43;;
10191;SDS011;17580;50.850;4.504;2023-11-18T08:29:14;4.73;;;3.00;;
10191;SDS011;17580;50.850;4.504;2023-11-18T08:31:42;7.10;;;3.20;;
10191;SDS011;17580;50.850;4.504;2023-11-18T08:34:09;6.23;;;3.23;;
10191;SDS011;17580;50.850;4.504;2023-11-18T08:36:37;4.53;;;3.33;;
10191;SDS011;17580;50.850;4.504;2023-11-18T08:39:04;6.70;;;4.63;;
10191;SDS011;17580;50.850;4.504;2023-11-18T08:41:32;7.20;;;3.83;;
10191;SDS011;17580;50.850;4.504;2023-11-18T08:44:02;3.80;;;3.47;;
10191;SDS011;17580;50.850;4.504;2023-11-18T08:46:29;5.40;;;3.47;;
10191;SDS011;17580;50.850;4.504;2023-11-18T08:48:56;9.83;;;3.57;;
10191;SDS011;17580;50.850;4.504;2023-11-18T08:51:31;6.27;;;3.40;;
10191;SDS011;17580;50.850;4.504;2023-11-18T08:53:59;4.17;;;3.13;;
10191;SDS011;17580;50.850;4.504;2023-11-18T08:56:26;7.53;;;3.93;;
10191;SDS011;17580;50.850;4.504;2023-11-18T08:58:59;5.93;;;3.83;;
10191;SDS011;17580;50.850;4.504;2023-11-18T09:01:28;6.53;;;4.00;;
10191;SDS011;17580;50.850;4.504;2023-11-18T09:03:56;6.73;;;4.17;;
10191;SDS011;17580;50.850;4.504;2023-11-18T09:06:26;4.73;;;3.57;;
10191;SDS011;17580;50.850;4.504;2023-11-18T09:08:54;7.03;;;4.03;;
10191;SDS011;17580;50.850;4.504;2023-11-18T09:11:23;6.00;;;4.33;;
10191;SDS011;17580;50.850;4.504;2023-11-18T09:13:52;6.23;;;3.50;;
10191;SDS011;17580;50.850;4.504;2023-11-18T09:16:22;4.40;;;3.67;;
10191;SDS011;17580;50.850;4.504;2023-11-18T09:18:52;11.63;;;4.10;;
10191;SDS011;17580;50.850;4.504;2023-11-18T09:21:19;6.87;;;3.57;;
10191;SDS011;17580;50.850;4.504;2023-11-18T09:23:50;7.43;;;3.73;;
10191;SDS011;17580;50.850;4.504;2023-11-18T09:26:17;7.00;;;4.00;;
10191;SDS011;17580;50.850;4.504;2023-11-18T09:28:46;7.03;;;3.80;;
10191;SDS011;17580;50.850;4.504;2023-11-18T09:31:15;6.10;;;3.97;;
10191;SDS011;17580;50.850;4.504;2023-11-18T09:33:42;6.03;;;3.60;;
10191;SDS011;17580;50.850;4.504;2023-11-18T09:36:18;8.33;;;4.23;;
10191;SDS011;17580;50.850;4.504;2023-11-18T09:38:46;6.87;;;4.30;;
10191;SDS011;17580;50.850;4.504;2023-11-18T09:41:14;8.40;;;4.60;;
10191;SDS011;17580;50.850;4.504;2023-11-18T09:43:42;6.47;;;3.77;;
10191;SDS011;17580;50.850;4.504;2023-11-18T09:46:11;6.90;;;4.10;;
10191;SDS011;17580;50.850;4.504;2023-11-18T09:48:42;5.93;;;3.40;;
10191;SDS011;17580;50.850;4.504;2023-11-18T09:51:12;9.10;;;4.47;;
10191;SDS011;17580;50.850;4.504;2023-11-18T09:53:43;5.47;;;3.60;;
10191;SDS011;17580;50.850;4.504;2023-11-18T09:56:21;6.87;;;4.07;;
10191;SDS011;17580;50.850;4.504;2023-11-18T09:58:57;5.60;;;4.17;;
10191;SDS011;17580;50.850;4.504;2023-11-18T10:01:28;7.03;;;3.87;;
10191;SDS011;17580;50.850;4.504;2023-11-18T10:03:58;8.03;;;4.33;;
10191;SDS011;17580;50.850;4.504;2023-11-18T10:06:28;6.00;;;3.73;;
10191;SDS011;17580;50.850;4.504;2023-11-18T10:09:00;3.40;;;3.10;;
10191;SDS011;17580;50.850;4.504;2023-11-18T10:11:40;6.60;;;4.10;;
10191;SDS011;17580;50.850;4.504;2023-11-18T10:14:07;5.67;;;3.97;;
10191;SDS011;17580;50.850;4.504;2023-11-18T10:16:36;4.17;;;3.27;;
10191;SDS011;17580;50.850;4.504;2023-11-18T10:19:03;4.90;;;4.07;;
10191;SDS011;17580;50.850;4.504;2023-11-18T10:21:36;9.17;;;4.80;;
10191;SDS011;17580;50.850;4.504;2023-11-18T10:24:06;5.77;;;3.70;;
10191;SDS011;17580;50.850;4.504;2023-11-18T10:26:39;4.17;;;3.73;;
10191;SDS011;17580;50.850;4.504;2023-11-18T10:29:07;5.03;;;3.87;;
10191;SDS011;17580;50.850;4.504;2023-11-18T10:31:38;4.57;;;4.13;;
10191;SDS011;17580;50.850;4.504;2023-11-18T10:34:10;5.63;;;3.47;;
10191;SDS011;17580;50.850;4.504;2023-11-18T10:36:40;6.47;;;4.20;;
10191;SDS011;17580;50.850;4.504;2023-11-18T10:39:12;9.90;;;3.80;;
10191;SDS011;17580;50.850;4.504;2023-11-18T10:41:42;4.80;;;3.77;;
10191;SDS011;17580;50.850;4.504;2023-11-18T10:44:12;4.10;;;3.80;;
10191;SDS011;17580;50.850;4.504;2023-11-18T10:46:40;4.50;;;4.10;;
10191;SDS011;17580;50.850;4.504;2023-11-18T10:49:08;3.33;;;3.00;;
10191;SDS011;17580;50.850;4.504;2023-11-18T10:51:35;6.13;;;4.23;;
10191;SDS011;17580;50.850;4.504;2023-11-18T10:54:04;4.17;;;3.83;;
10191;SDS011;17580;50.850;4.504;2023-11-18T10:56:46;4.27;;;3.53;;
10191;SDS011;17580;50.850;4.504;2023-11-18T10:59:14;5.80;;;3.80;;
10191;SDS011;17580;50.850;4.504;2023-11-18T11:01:43;7.47;;;3.60;;
10191;SDS011;17580;50.850;4.504;2023-11-18T11:04:14;4.77;;;2.93;;
10191;SDS011;17580;50.850;4.504;2023-11-18T11:06:42;3.57;;;3.27;;
10191;SDS011;17580;50.850;4.504;2023-11-18T11:09:17;4.00;;;3.07;;
10191;SDS011;17580;50.850;4.504;2023-11-18T11:11:47;4.00;;;3.50;;
10191;SDS011;17580;50.850;4.504;2023-11-18T11:14:15;4.20;;;3.23;;
10191;SDS011;17580;50.850;4.504;2023-11-18T11:16:44;3.57;;;3.13;;
10191;SDS011;17580;50.850;4.504;2023-11-18T11:19:16;3.77;;;2.60;;
10191;SDS011;17580;50.850;4.504;2023-11-18T11:21:52;4.73;;;2.80;;
10191;SDS011;17580;50.850;4.504;2023-11-18T11:24:26;4.07;;;2.70;;
10191;SDS011;17580;50.850;4.504;2023-11-18T11:27:03;3.47;;;2.40;;
10191;SDS011;17580;50.850;4.504;2023-11-18T11:29:35;2.33;;;2.10;;
10191;SDS011;17580;50.850;4.504;2023-11-18T11:32:09;2.47;;;2.27;;
10191;SDS011;17580;50.850;4.504;2023-11-18T11:34:38;4.13;;;2.30;;
10191;SDS011;17580;50.850;4.504;2023-11-18T11:37:07;2.60;;;2.00;;
10191;SDS011;17580;50.850;4.504;2023-11-18T11:39:35;3.83;;;1.90;;
10191;SDS011;17580;50.850;4.504;2023-11-18T11:42:04;2.30;;;2.03;;
10191;SDS011;17580;50.850;4.504;2023-11-18T11:44:34;2.10;;;1.77;;
10191;SDS011;17580;50.850;4.504;2023-11-18T11:47:07;1.70;;;1.60;;
10191;SDS011;17580;50.850;4.504;2023-11-18T11:49:41;1.77;;;1.63;;
10191;SDS011;17580;50.850;4.504;2023-11-18T11:52:11;2.30;;;1.60;;
10191;SDS011;17580;50.850;4.504;2023-11-18T11:54:43;3.00;;;1.67;;
10191;SDS011;17580;50.850;4.504;2023-11-18T11:57:14;4.30;;;1.53;;
10191;SDS011;17580;50.850;4.504;2023-11-18T11:59:54;3.27;;;1.43;;
10191;SDS011;17580;50.850;4.504;2023-11-18T12:02:22;2.80;;;1.40;;
10191;SDS011;17580;50.850;4.504;2023-11-18T12:04:51;6.20;;;1.40;;
10191;SDS011;17580;50.850;4.504;2023-11-18T12:07:21;2.20;;;1.43;;
10191;SDS011;17580;50.850;4.504;2023-11-18T12:09:54;2.10;;;1.50;;
10191;SDS011;17580;50.850;4.504;2023-11-18T12:12:24;2.40;;;1.17;;
10191;SDS011;17580;50.850;4.504;2023-11-18T12:14:52;2.00;;;1.60;;
10191;SDS011;17580;50.850;4.504;2023-11-18T12:17:21;1.20;;;1.20;;
10191;SDS011;17580;50.850;4.504;2023-11-18T12:19:49;3.10;;;1.40;;
10191;SDS011;17580;50.850;4.504;2023-11-18T12:22:23;1.07;;;1.07;;
10191;SDS011;17580;50.850;4.504;2023-11-18T12:27:46;1.87;;;1.20;;
10191;SDS011;17580;50.850;4.504;2023-11-18T12:33:04;1.30;;;1.23;;
10191;SDS011;17580;50.850;4.504;2023-11-18T12:35:35;1.23;;;1.13;;
10191;SDS011;17580;50.850;4.504;2023-11-18T12:38:13;2.30;;;1.27;;
10191;SDS011;17580;50.850;4.504;2023-11-18T12:40:52;1.20;;;1.20;;
10191;SDS011;17580;50.850;4.504;2023-11-18T12:43:27;1.30;;;1.20;;
10191;SDS011;17580;50.850;4.504;2023-11-18T12:48:48;1.27;;;1.27;;
10191;SDS011;17580;50.850;4.504;2023-11-18T12:51:17;3.20;;;1.53;;
10191;SDS011;17580;50.850;4.504;2023-11-18T12:53:47;1.73;;;1.27;;
10191;SDS011;17580;50.850;4.504;2023-11-18T12:56:16;1.30;;;1.20;;
10191;SDS011;17580;50.850;4.504;2023-11-18T12:58:46;1.27;;;1.17;;
10191;SDS011;17580;50.850;4.504;2023-11-18T13:01:13;1.67;;;1.57;;
10191;SDS011;17580;50.850;4.504;2023-11-18T13:03:41;1.80;;;1.10;;
10191;SDS011;17580;50.850;4.504;2023-11-18T13:06:09;1.10;;;1.10;;
10191;SDS011;17580;50.850;4.504;2023-11-18T13:08:37;1.30;;;1.20;;
10191;SDS011;17580;50.850;4.504;2023-11-18T13:11:04;3.50;;;1.47;;
10191;SDS011;17580;50.850;4.504;2023-11-18T13:13:37;1.03;;;1.03;;
10191;SDS011;17580;50.850;4.504;2023-11-18T13:16:06;0.90;;;0.90;;
10191;SDS011;17580;50.850;4.504;2023-11-18T13:18:43;1.73;;;1.63;;
10191;SDS011;17580;50.850;4.504;2023-11-18T13:21:14;1.37;;;1.30;;
10191;SDS011;17580;50.850;4.504;2023-11-18T13:23:44;1.30;;;1.20;;
10191;SDS011;17580;50.850;4.504;2023-11-18T13:26:13;1.70;;;1.40;;
10191;SDS011;17580;50.850;4.504;2023-11-18T13:28:40;0.80;;;0.80;;
10191;SDS011;17580;50.850;4.504;2023-11-18T13:31:10;0.90;;;0.90;;
10191;SDS011;17580;50.850;4.504;2023-11-18T13:33:41;0.60;;;0.60;;
10191;SDS011;17580;50.850;4.504;2023-11-18T13:36:09;0.70;;;0.70;;
10191;SDS011;17580;50.850;4.504;2023-11-18T13:38:37;0.90;;;0.90;;
10191;SDS011;17580;50.850;4.504;2023-11-18T13:41:04;0.87;;;0.87;;
10191;SDS011;17580;50.850;4.504;2023-11-18T13:43:43;0.83;;;0.83;;
10191;SDS011;17580;50.850;4.504;2023-11-18T13:46:12;1.27;;;0.93;;
10191;SDS011;17580;50.850;4.504;2023-11-18T13:48:40;0.90;;;0.87;;
10191;SDS011;17580;50.850;4.504;2023-11-18T13:51:08;1.00;;;1.00;;
10191;SDS011;17580;50.850;4.504;2023-11-18T13:53:38;0.83;;;0.80;;
10191;SDS011;17580;50.850;4.504;2023-11-18T13:56:06;1.10;;;1.10;;
10191;SDS011;17580;50.850;4.504;2023-11-18T13:58:34;0.90;;;0.90;;
10191;SDS011;17580;50.850;4.504;2023-11-18T14:01:04;1.00;;;1.00;;
10191;SDS011;17580;50.850;4.504;2023-11-18T14:03:34;1.10;;;1.00;;
10191;SDS011;17580;50.850;4.504;2023-11-18T14:06:02;0.80;;;0.80;;
10191;SDS011;17580;50.850;4.504;2023-11-18T14:08:30;1.10;;;1.00;;
10191;SDS011;17580;50.850;4.504;2023-11-18T14:10:58;0.80;;;0.80;;
10191;SDS011;17580;50.850;4.504;2023-11-18T14:13:25;1.00;;;1.00;;
10191;SDS011;17580;50.850;4.504;2023-11-18T14:15:56;0.80;;;0.80;;
10191;SDS011;17580;50.850;4.504;2023-11-18T14:18:23;1.07;;;1.00;;
10191;SDS011;17580;50.850;4.504;2023-11-18T14:20:51;1.73;;;1.10;;
10191;SDS011;17580;50.850;4.504;2023-11-18T14:23:20;0.90;;;0.90;;
10191;SDS011;17580;50.850;4.504;2023-11-18T14:25:48;1.03;;;1.00;;
10191;SDS011;17580;50.850;4.504;2023-11-18T14:28:15;0.90;;;0.90;;
10191;SDS011;17580;50.850;4.504;2023-11-18T14:30:42;1.43;;;1.33;;
10191;SDS011;17580;50.850;4.504;2023-11-18T14:33:10;1.00;;;1.00;;
10191;SDS011;17580;50.850;4.504;2023-11-18T14:35:37;1.07;;;1.07;;
10191;SDS011;17580;50.850;4.504;2023-11-18T14:38:06;1.10;;;1.10;;
10191;SDS011;17580;50.850;4.504;2023-11-18T14:40:34;1.03;;;1.03;;
10191;SDS011;17580;50.850;4.504;2023-11-18T14:43:01;1.00;;;1.00;;
10191;SDS011;17580;50.850;4.504;2023-11-18T14:45:29;1.10;;;1.10;;
10191;SDS011;17580;50.850;4.504;2023-11-18T14:47:57;1.27;;;1.20;;
10191;SDS011;17580;50.850;4.504;2023-11-18T14:50:25;0.73;;;0.73;;
10191;SDS011;17580;50.850;4.504;2023-11-18T14:52:52;1.53;;;1.50;;
10191;SDS011;17580;50.850;4.504;2023-11-18T14:55:25;1.03;;;0.93;;
10191;SDS011;17580;50.850;4.504;2023-11-18T14:57:53;0.97;;;0.97;;
10191;SDS011;17580;50.850;4.504;2023-11-18T15:00:20;1.20;;;1.20;;
10191;SDS011;17580;50.850;4.504;2023-11-18T15:02:50;2.53;;;0.90;;
10191;SDS011;17580;50.850;4.504;2023-11-18T15:05:17;0.83;;;0.83;;